メインページ
METAR-TAF:

METAR-TAF

空港 :

ブルネイ国際空港

ブルネイ, ブルネイ

緯度: 04-56N, 経度: 114-56E, 海抜: 22m

現時点の気象観測

当レポートは39分前の05:30(UTC)に作成
北西の風 7kt
気温 31°C
湿度 79%
気圧 1009 hPa
視程10km以上
高度1500ftの雲はほとんどない
高度1600ftの雲はほとんどない, 積乱雲.
高度14000ftの雲は散在している
高度30000ftの千切れ雲あり
弱いにわか雨,

METAR: WBSB 180530Z 31007KT 9999 -SHRA FEW015 FEW016CB SCT140 BKN300 31/27 Q1009 NOSIG

時間: 14:09 (06:09 UTC)

予報

当レポートは1時間19分前の04:50(UTC)に作成
予報は18日の 06時(UTC)から 19日の 12時(UTC)まで有効
西の風 8kt
視程10km以上
高度1500ftの雲は散在している
高度1600ftの雲はほとんどない, 積乱雲.
18日の 06時(UTC)から 18日の 08時(UTC)まで一時的に
視程: 7000m
弱いにわか雨
18日の 12時(UTC)から 18日の 14時(UTC)まで徐々に
南東の風 5kt
高度1500ftの雲はほとんどない
高度1600ftの雲はほとんどない, 積乱雲.

TAF: WBSB 180450Z 1806/1912 26008KT 9999 SCT015 FEW016CB TEMPO 1806/1808 7000 -SHRA BECMG 1812/1814 14005KT FEW015 FEW016CB

4,000以上の空港の気象観測と天気予報(METAR報とTAF報)

利用可能な観測所は地図上に黄色い丸と赤い丸で示す。

丸の上にカーソルを重ねると観測所名を参照できる。

次にクリックすると気象観測と天気予報を参照できる。

マップの切り替え:黒色「×」印の緑ボタンをクリックして拡大、「-」印の緑ボタンをクリックして縮小、緑色の三角印をクリックして隣りの地図に切り替え


METAR-TAF: